Grant, Minnesota
Current Conditions -  °F | °C
As of 4:30 AM on Thursday 27 Nov 2014 (Local Time) from K21D Reporting Station
Clear Clear  
Wind Chill: -10°   Ceiling: Unl
Heat Index:   Visibility: 10mi
Dew Point: -4°   Wind: 8mph
Humidity: 72%   Direction: 350°N
Pressure: 30.45"   Gusts: NA
Location:  45.051°N, 92.9612°W
Report Text: K21D 271030Z AUTO 35007KT 10SM CLR M16/M20 A3045 RMK AO2
Loading
Personal Weather Stations






























Interactive Weather Map New forecast layout! Learn more

10-Day Weather Forecast

Advertisements
Track Severe Weather on mobile